createdAt,value
2022-10-05T00:00:19.882Z,3.25
2022-10-05T00:03:22.675Z,3.26
2022-10-05T00:06:25.185Z,3.27
2022-10-05T00:09:30.129Z,3.32
2022-10-05T00:12:31.684Z,3.26
2022-10-05T00:15:33.271Z,3.24
2022-10-05T00:18:34.897Z,3.24
2022-10-05T00:21:36.530Z,3.23
2022-10-05T00:24:38.183Z,3.18
2022-10-05T00:27:40.100Z,3.15
2022-10-05T00:30:41.717Z,3.04
2022-10-05T00:33:43.480Z,3.02
2022-10-05T00:36:45.579Z,2.98
2022-10-05T00:39:47.413Z,2.97
2022-10-05T00:43:01.919Z,2.93
2022-10-05T00:46:11.111Z,2.92
2022-10-05T00:49:28.066Z,2.91
2022-10-05T00:52:29.643Z,2.88
2022-10-05T00:55:34.290Z,2.89
2022-10-05T00:58:35.778Z,2.87
2022-10-05T01:01:43.603Z,2.88
2022-10-05T01:04:54.079Z,2.87
2022-10-05T01:08:14.494Z,2.89
2022-10-05T01:11:34.925Z,2.89
2022-10-05T01:14:51.789Z,2.88
2022-10-05T01:17:53.296Z,2.88
2022-10-05T01:20:57.717Z,2.87
2022-10-05T01:24:02.384Z,2.89
2022-10-05T01:27:28.685Z,2.89
2022-10-05T01:30:56.694Z,2.87
2022-10-05T01:34:07.832Z,2.85
2022-10-05T01:37:22.645Z,2.82
2022-10-05T01:40:24.192Z,2.79
2022-10-05T01:43:47.654Z,2.69
2022-10-05T01:46:56.846Z,2.73
2022-10-05T01:50:04.713Z,2.71
2022-10-05T01:53:10.202Z,2.65
2022-10-05T01:56:17.954Z,2.62
2022-10-05T01:59:34.853Z,2.60
2022-10-05T02:02:42.593Z,2.59
2022-10-05T02:06:07.196Z,2.56
2022-10-05T02:09:08.767Z,2.58
2022-10-05T02:12:14.256Z,2.64
2022-10-05T02:15:18.482Z,2.62
2022-10-05T02:18:21.496Z,2.59
2022-10-05T02:21:23.604Z,2.59
2022-10-05T02:24:29.028Z,2.57
2022-10-05T02:27:36.668Z,2.50
2022-10-05T02:30:42.159Z,2.45
2022-10-05T02:33:44.794Z,2.43
2022-10-05T02:37:09.251Z,2.41
2022-10-05T02:40:29.852Z,2.39
2022-10-05T02:43:40.646Z,2.36
2022-10-05T02:46:57.024Z,2.35
2022-10-05T02:50:20.499Z,2.37
2022-10-05T02:53:25.669Z,2.27
2022-10-05T02:56:30.480Z,2.21
2022-10-05T02:59:37.286Z,2.22
2022-10-05T03:02:41.041Z,2.14
2022-10-05T03:05:48.345Z,2.16
2022-10-05T03:08:59.994Z,2.12
2022-10-05T03:12:05.879Z,2.02
2022-10-05T03:15:23.766Z,1.98
2022-10-05T03:18:51.720Z,1.99
2022-10-05T03:21:53.277Z,1.97
2022-10-05T03:25:17.424Z,1.98
2022-10-05T03:28:22.595Z,2.01
2022-10-05T03:31:28.099Z,1.98
2022-10-05T03:34:38.864Z,1.99
2022-10-05T03:37:53.378Z,1.95
2022-10-05T03:41:14.698Z,1.93
2022-10-05T03:44:35.166Z,1.88
2022-10-05T03:47:38.060Z,1.86
2022-10-05T03:50:55.582Z,1.85
2022-10-05T03:53:59.949Z,1.82
2022-10-05T03:57:11.600Z,1.70
2022-10-05T04:00:16.009Z,1.60
2022-10-05T04:03:26.342Z,1.61
2022-10-05T04:06:35.408Z,1.65
2022-10-05T04:09:40.710Z,1.63
2022-10-05T04:12:45.644Z,1.58
2022-10-05T04:16:00.837Z,1.61
2022-10-05T04:19:14.394Z,1.61
2022-10-05T04:22:19.646Z,1.60
2022-10-05T04:25:28.982Z,1.56
2022-10-05T04:28:42.891Z,1.59
2022-10-05T04:31:56.275Z,1.62
2022-10-05T04:35:04.169Z,1.61
2022-10-05T04:38:22.734Z,1.61
2022-10-05T04:41:25.383Z,1.63
2022-10-05T04:44:37.279Z,1.58
2022-10-05T04:47:39.927Z,1.58
2022-10-05T04:50:44.806Z,1.61
2022-10-05T04:53:54.194Z,1.63
2022-10-05T04:56:59.301Z,1.68
2022-10-05T05:00:01.417Z,1.69
2022-10-05T05:03:22.149Z,1.66
2022-10-05T05:06:26.601Z,1.51
2022-10-05T05:09:34.986Z,1.57
2022-10-05T05:13:04.189Z,1.56
2022-10-05T05:16:15.775Z,1.70
2022-10-05T05:19:21.878Z,1.75
2022-10-05T05:22:31.696Z,1.85
2022-10-05T05:25:42.826Z,1.97
2022-10-05T05:28:55.708Z,2.06
2022-10-05T05:32:06.382Z,2.17
2022-10-05T05:35:08.131Z,2.20
2022-10-05T05:38:25.180Z,2.31
2022-10-05T05:41:36.946Z,2.40
2022-10-05T05:44:47.989Z,2.51
2022-10-05T05:47:52.795Z,2.55
2022-10-05T05:51:03.473Z,2.66
2022-10-05T05:54:20.500Z,2.83
2022-10-05T05:57:25.603Z,2.99
2022-10-05T06:00:30.370Z,3.10
2022-10-05T06:03:48.570Z,3.14
2022-10-05T06:06:52.124Z,3.16
2022-10-05T06:09:58.672Z,3.30
2022-10-05T06:13:10.806Z,3.35
2022-10-05T06:16:38.856Z,3.48
2022-10-05T06:19:42.959Z,3.80
2022-10-05T06:22:46.040Z,4.14
2022-10-05T06:26:09.768Z,4.34
2022-10-05T06:29:16.861Z,4.56
2022-10-05T06:32:25.602Z,4.67
2022-10-05T06:35:28.115Z,4.95
2022-10-05T06:38:39.552Z,5.23
2022-10-05T06:41:47.125Z,5.45
2022-10-05T06:45:09.172Z,5.31
2022-10-05T06:48:24.731Z,5.58
2022-10-05T06:52:02.250Z,5.71
2022-10-05T06:55:43.616Z,5.89
2022-10-05T06:58:54.848Z,6.37
2022-10-05T07:02:06.884Z,6.70
2022-10-05T07:05:08.777Z,6.73
2022-10-05T07:08:16.119Z,7.02
2022-10-05T07:11:32.477Z,6.96
2022-10-05T07:14:43.643Z,7.00
2022-10-05T07:17:46.343Z,7.20
2022-10-05T07:21:04.261Z,7.18
2022-10-05T07:24:38.952Z,7.21
2022-10-05T07:27:51.016Z,7.47
2022-10-05T07:31:01.033Z,7.49
2022-10-05T07:34:02.667Z,7.60
2022-10-05T07:37:35.505Z,7.75
2022-10-05T07:40:44.907Z,8.09
2022-10-05T07:44:02.388Z,8.20
2022-10-05T07:47:16.783Z,8.56
2022-10-05T07:50:22.862Z,8.71
2022-10-05T07:53:28.808Z,8.80
2022-10-05T07:56:38.277Z,8.91
2022-10-05T07:59:40.087Z,8.81
2022-10-05T08:02:50.512Z,9.10
2022-10-05T08:05:52.470Z,9.27
2022-10-05T08:09:02.187Z,9.23
2022-10-05T08:12:17.095Z,9.46
2022-10-05T08:15:21.865Z,9.61
2022-10-05T08:18:23.708Z,9.92
2022-10-05T08:21:34.323Z,10.14
2022-10-05T08:24:42.454Z,10.28
2022-10-05T08:27:51.092Z,10.57
2022-10-05T08:31:02.087Z,10.81
2022-10-05T08:34:03.927Z,10.81
2022-10-05T08:37:13.552Z,10.93
2022-10-05T08:40:33.836Z,10.96
2022-10-05T08:43:47.748Z,10.80
2022-10-05T08:46:49.371Z,10.91
2022-10-05T08:49:50.905Z,10.74
2022-10-05T08:52:52.500Z,10.66
2022-10-05T08:56:06.346Z,10.56
2022-10-05T08:59:21.660Z,10.76
2022-10-05T09:02:29.131Z,11.19
2022-10-05T09:06:00.147Z,11.40
2022-10-05T09:09:17.119Z,11.46
2022-10-05T09:12:37.539Z,11.79
2022-10-05T09:15:57.876Z,12.11
2022-10-05T09:18:59.934Z,12.29
2022-10-05T09:22:21.451Z,12.41
2022-10-05T09:25:23.127Z,12.64
2022-10-05T09:28:29.087Z,12.98
2022-10-05T09:31:34.071Z,13.16
2022-10-05T09:34:57.823Z,13.52
2022-10-05T09:38:02.729Z,13.82
2022-10-05T09:41:23.531Z,14.00
2022-10-05T09:44:40.522Z,14.25
2022-10-05T09:47:54.080Z,14.83
2022-10-05T09:51:04.634Z,15.03
2022-10-05T09:54:19.813Z,15.29
2022-10-05T09:57:40.193Z,15.45
2022-10-05T10:00:54.208Z,15.77
2022-10-05T10:04:17.389Z,15.89
2022-10-05T10:07:20.704Z,16.14
2022-10-05T10:10:48.227Z,16.11
2022-10-05T10:13:56.487Z,16.55
2022-10-05T10:17:17.187Z,16.42
2022-10-05T10:20:19.188Z,16.42
2022-10-05T10:23:40.818Z,16.68
2022-10-05T10:26:52.075Z,16.66
2022-10-05T10:30:34.422Z,17.00
2022-10-05T10:33:38.088Z,17.26
2022-10-05T10:36:52.213Z,17.43
2022-10-05T10:40:06.237Z,17.65
2022-10-05T10:43:10.878Z,18.00
2022-10-05T10:46:21.373Z,18.00
2022-10-05T10:49:26.501Z,17.98
2022-10-05T10:52:31.425Z,18.08
2022-10-05T10:55:33.031Z,18.07
2022-10-05T10:58:53.168Z,17.83
2022-10-05T11:02:04.007Z,17.76
2022-10-05T11:05:24.477Z,17.79
2022-10-05T11:08:45.247Z,18.17
2022-10-05T11:12:05.239Z,18.13
2022-10-05T11:15:12.621Z,18.32
2022-10-05T11:18:32.881Z,18.21
2022-10-05T11:21:55.370Z,18.36
2022-10-05T11:25:15.656Z,18.23
2022-10-05T11:28:27.650Z,18.20
2022-10-05T11:31:35.773Z,18.43
2022-10-05T11:34:43.586Z,18.47
2022-10-05T11:37:45.205Z,18.41
2022-10-05T11:40:56.266Z,18.56
2022-10-05T11:44:07.138Z,18.78
2022-10-05T11:47:09.005Z,18.60
2022-10-05T11:50:21.027Z,18.63
2022-10-05T11:53:43.769Z,18.57
2022-10-05T11:57:00.993Z,18.80
2022-10-05T12:00:09.332Z,18.63
2022-10-05T12:03:17.383Z,18.68
2022-10-05T12:06:19.028Z,18.57
2022-10-05T12:09:39.239Z,18.79
2022-10-05T12:13:01.574Z,18.68
2022-10-05T12:16:09.934Z,18.74
2022-10-05T12:19:11.496Z,18.90
2022-10-05T12:22:15.442Z,18.80
2022-10-05T12:25:25.654Z,18.70
2022-10-05T12:28:37.717Z,18.45
2022-10-05T12:31:39.596Z,18.53
2022-10-05T12:35:01.519Z,18.58
2022-10-05T12:38:03.856Z,18.57
2022-10-05T12:41:10.761Z,18.60
2022-10-05T12:44:19.491Z,18.54
2022-10-05T12:47:27.017Z,18.51
2022-10-05T12:50:34.286Z,18.39
2022-10-05T12:53:35.923Z,18.26
2022-10-05T12:56:50.901Z,18.34
2022-10-05T13:00:01.115Z,18.96
2022-10-05T13:03:13.398Z,18.70
2022-10-05T13:06:20.804Z,18.48
2022-10-05T13:09:28.006Z,18.45
2022-10-05T13:12:36.062Z,-149.13
2022-10-05T13:15:44.586Z,-149.13
2022-10-05T13:18:49.909Z,-149.13
2022-10-05T13:22:03.615Z,-149.13
2022-10-05T13:25:14.092Z,-149.13
2022-10-05T13:28:19.638Z,-149.13
2022-10-05T13:31:30.960Z,-149.13
2022-10-05T13:34:40.239Z,-149.13
2022-10-05T13:37:56.921Z,-149.13
2022-10-05T13:40:58.487Z,-149.13
2022-10-05T13:44:00.144Z,-149.13
2022-10-05T13:47:05.862Z,-149.13
2022-10-05T13:50:19.500Z,-149.13
2022-10-05T13:53:36.430Z,-149.13
2022-10-05T13:56:42.835Z,-149.13
2022-10-05T13:59:55.749Z,-149.13
2022-10-05T14:02:59.649Z,-149.13
2022-10-05T14:06:02.640Z,-149.13
2022-10-05T14:09:04.359Z,-149.13
2022-10-05T14:12:11.992Z,-149.13
2022-10-05T14:15:19.849Z,-149.13
2022-10-05T14:18:25.132Z,-149.13
2022-10-05T14:21:29.518Z,-149.13
2022-10-05T14:24:45.656Z,-149.13
2022-10-05T14:27:59.333Z,-149.13
2022-10-05T14:31:00.937Z,-149.13
2022-10-05T14:34:21.393Z,-149.13
2022-10-05T14:37:25.456Z,-149.13
2022-10-05T14:40:31.905Z,-149.13
2022-10-05T14:43:34.495Z,-149.13
2022-10-05T14:46:36.656Z,-149.13
2022-10-05T14:49:48.113Z,-149.13
2022-10-05T14:53:10.338Z,-149.13
2022-10-05T14:56:27.230Z,-149.13
2022-10-05T14:59:41.119Z,-149.13
2022-10-05T15:02:45.116Z,-149.13
2022-10-05T15:05:55.182Z,-149.13
2022-10-05T15:09:16.479Z,-149.13
2022-10-05T15:12:23.175Z,-149.13
2022-10-05T15:15:32.933Z,-149.13
2022-10-05T15:18:43.440Z,-149.13
2022-10-05T15:22:03.617Z,-149.13
2022-10-05T15:25:23.065Z,-149.13
2022-10-05T15:28:40.705Z,-149.13
2022-10-05T15:31:45.337Z,-149.13
2022-10-05T15:35:16.289Z,-149.13
2022-10-05T15:38:25.961Z,-149.13
2022-10-05T15:41:40.401Z,-149.13
2022-10-05T15:44:57.732Z,-149.13
2022-10-05T15:48:07.979Z,-149.13
2022-10-05T15:51:29.836Z,-149.13
2022-10-05T15:54:43.373Z,-149.13
2022-10-05T15:57:48.580Z,-149.13
2022-10-05T16:01:05.285Z,-149.13
2022-10-05T16:04:18.152Z,-149.13
2022-10-05T16:07:40.943Z,-149.13
2022-10-05T16:10:44.245Z,-149.13
2022-10-05T16:13:50.298Z,-149.13
2022-10-05T16:17:15.217Z,-149.13
2022-10-05T16:20:26.688Z,-149.13
2022-10-05T16:23:28.402Z,-149.13
2022-10-05T16:26:31.748Z,-149.13
2022-10-05T16:29:38.814Z,-149.13
2022-10-05T16:32:49.396Z,-149.13
2022-10-05T16:35:53.796Z,-149.13
2022-10-05T16:39:01.099Z,-149.13
2022-10-05T16:42:02.653Z,-149.13
2022-10-05T16:45:14.703Z,-149.13
2022-10-05T16:48:27.434Z,-149.13
2022-10-05T16:51:43.455Z,-149.13
2022-10-05T16:54:48.394Z,-149.13
2022-10-05T16:57:55.686Z,-149.13
2022-10-05T17:00:57.622Z,-149.13
2022-10-05T17:04:09.610Z,-149.13
2022-10-05T17:07:11.158Z,-149.13
2022-10-05T17:10:22.144Z,-149.13
2022-10-05T17:13:44.032Z,-149.13
2022-10-05T17:17:04.385Z,-149.13
2022-10-05T17:20:06.989Z,-149.13
2022-10-05T17:23:31.230Z,-149.13
2022-10-05T17:26:52.848Z,-149.13
2022-10-05T17:29:55.537Z,-149.13
2022-10-05T17:33:04.761Z,-149.13
2022-10-05T17:36:09.745Z,-149.13
2022-10-05T17:39:43.555Z,-149.13
2022-10-05T17:42:46.481Z,-149.13
2022-10-05T17:45:50.428Z,-149.13
2022-10-05T17:48:54.224Z,-149.13
2022-10-05T17:52:15.864Z,-149.13
2022-10-05T17:55:32.840Z,-149.13
2022-10-05T17:58:35.165Z,-149.13
2022-10-05T18:01:37.964Z,-149.13
2022-10-05T18:04:42.231Z,-149.13
2022-10-05T18:07:48.203Z,-149.13
2022-10-05T18:11:08.525Z,-149.13
2022-10-05T18:14:16.474Z,-149.13
2022-10-05T18:17:40.009Z,-149.13
2022-10-05T18:21:01.757Z,-149.13
2022-10-05T18:24:16.712Z,-149.13
2022-10-05T18:27:18.320Z,-149.13
2022-10-05T18:30:23.944Z,-149.13
2022-10-05T18:33:38.179Z,18.45
2022-10-05T18:36:58.654Z,11.62
2022-10-05T18:40:00.436Z,11.62
2022-10-05T18:43:22.697Z,11.57
2022-10-05T18:46:38.612Z,11.53
2022-10-05T18:49:40.223Z,11.49
2022-10-05T18:52:51.283Z,11.47
2022-10-05T18:55:55.559Z,11.45
2022-10-05T18:59:06.116Z,11.38
2022-10-05T19:02:26.152Z,11.37
2022-10-05T19:05:49.371Z,11.32
2022-10-05T19:09:11.246Z,11.29
2022-10-05T19:12:31.280Z,11.25
2022-10-05T19:15:44.800Z,11.22
2022-10-05T19:19:05.020Z,11.18
2022-10-05T19:22:09.698Z,11.13
2022-10-05T19:25:23.682Z,11.09
2022-10-05T19:28:32.230Z,11.03
2022-10-05T19:31:48.288Z,10.98
2022-10-05T19:34:56.480Z,10.94
2022-10-05T19:38:05.757Z,10.88
2022-10-05T19:41:26.228Z,10.85
2022-10-05T19:44:38.406Z,10.84
2022-10-05T19:48:07.469Z,10.80
2022-10-05T19:51:15.945Z,10.74
2022-10-05T19:54:29.190Z,10.69
2022-10-05T19:57:31.959Z,10.68
2022-10-05T20:00:35.337Z,10.63
2022-10-05T20:03:38.132Z,10.59
2022-10-05T20:06:40.038Z,10.54
2022-10-05T20:09:50.596Z,10.49
2022-10-05T20:12:53.424Z,10.44
2022-10-05T20:16:32.000Z,10.42
2022-10-05T20:19:36.651Z,10.37
2022-10-05T20:22:48.571Z,10.33
2022-10-05T20:26:10.533Z,10.28
2022-10-05T20:29:12.151Z,10.23
2022-10-05T20:32:15.244Z,10.23
2022-10-05T20:35:18.190Z,10.23
2022-10-05T20:38:20.407Z,10.20
2022-10-05T20:41:22.090Z,10.18
2022-10-05T20:44:23.712Z,10.15
2022-10-05T20:47:25.824Z,10.15
2022-10-05T20:50:27.775Z,10.15
2022-10-05T20:53:29.544Z,10.14
2022-10-05T20:56:31.147Z,10.11
2022-10-05T20:59:33.263Z,10.12
2022-10-05T21:02:35.010Z,10.14
2022-10-05T21:05:36.575Z,10.10
2022-10-05T21:08:38.404Z,10.07
2022-10-05T21:11:40.427Z,10.04
2022-10-05T21:14:42.447Z,10.02
2022-10-05T21:17:44.007Z,9.98
2022-10-05T21:20:47.993Z,9.94
2022-10-05T21:23:51.209Z,9.91
2022-10-05T21:26:55.278Z,9.86
2022-10-05T21:29:56.805Z,9.84
2022-10-05T21:32:58.374Z,9.78
2022-10-05T21:35:59.941Z,9.73
2022-10-05T21:39:01.585Z,9.68
2022-10-05T21:42:03.563Z,9.60
2022-10-05T21:45:05.399Z,9.54
2022-10-05T21:48:07.169Z,9.44
2022-10-05T21:51:10.137Z,9.35
2022-10-05T21:54:13.996Z,9.26
2022-10-05T21:57:15.872Z,9.20
2022-10-05T22:00:17.611Z,9.15
2022-10-05T22:03:19.636Z,9.10
2022-10-05T22:06:21.222Z,9.02
2022-10-05T22:09:23.055Z,8.99
2022-10-05T22:12:26.365Z,8.90
2022-10-05T22:15:28.886Z,8.82
2022-10-05T22:18:30.907Z,8.75
2022-10-05T22:21:34.452Z,8.69
2022-10-05T22:24:36.184Z,8.64
2022-10-05T22:27:37.823Z,8.58
2022-10-05T22:30:39.877Z,8.48
2022-10-05T22:33:41.639Z,8.41
2022-10-05T22:36:43.369Z,8.36
2022-10-05T22:39:44.905Z,8.27
2022-10-05T22:42:46.475Z,8.19
2022-10-05T22:45:48.131Z,8.15
2022-10-05T22:48:51.851Z,8.09
2022-10-05T22:51:53.535Z,8.06
2022-10-05T22:54:55.132Z,7.98
2022-10-05T22:57:56.805Z,7.92
2022-10-05T23:01:05.263Z,7.81
2022-10-05T23:04:08.795Z,7.73
2022-10-05T23:07:10.387Z,7.68
2022-10-05T23:10:13.313Z,7.68
2022-10-05T23:13:15.260Z,7.53
2022-10-05T23:16:18.209Z,7.45
2022-10-05T23:19:19.960Z,7.36
2022-10-05T23:22:22.021Z,7.29
2022-10-05T23:25:23.594Z,7.27
2022-10-05T23:28:25.519Z,7.20
2022-10-05T23:31:29.863Z,7.19
2022-10-05T23:34:31.441Z,7.14
2022-10-05T23:37:35.988Z,7.09
2022-10-05T23:40:37.564Z,7.06
2022-10-05T23:43:39.270Z,6.99
2022-10-05T23:46:40.845Z,6.93
2022-10-05T23:49:42.387Z,6.83
2022-10-05T23:52:43.974Z,6.69
2022-10-05T23:55:45.928Z,6.59
2022-10-05T23:58:47.519Z,6.51
